Meteo Giornale » Osservazioni meteo Svizzera » Locarno

ore: 19:50 - Osservazioni Meteo Locarno
Lat. 46° 10' N Lon. 8° 53' E Alt. 600 metri s.l.m.

sereno Europe/Zurich

13 °C

Sereno

Temp. 24 Ore

1 °C

21 °C

Nord

3.7 Km/h

Dew point 3 °C

Umidità 50 %

Visibilità  10 Km

Il sole sorge alle ore 06:19

Il sole tramonta alle ore 18:42

Data e Ora Cielo e Fenomeni T °C DP °C Um. % Pres. hPa Vis. km Vento km/h
Oggi h: 19:50 sereno Sereno 13 3 50 1023 10 N 3.7
Oggi h: 19:20 sereno Sereno 14 2 44 1023 10 N 0
Oggi h: 18:50 sereno Sereno 18 2 34 1022 10 N 3.7
Oggi h: 18:20 sereno Sereno 19 1 29 1022 10 N 5.5
Oggi h: 17:50 sereno Sereno 20 1 28 1022 10 N 0
Oggi h: 17:20 sereno Sereno 21 1 26 1022 10 N 3.7
Oggi h: 16:50 sereno Sereno 21 1 26 1022 10 N 3.7
Oggi h: 16:20 sereno Sereno 20 1 28 1022 10 O/SO 7.4
Oggi h: 15:50 sereno Sereno 20 2 30 1022 10 O/SO 9.3
Oggi h: 15:20 poco_nuvoloso Poco Nuvoloso 19 2 32 1023 10 O 9.3
Oggi h: 14:50 sereno Sereno 18 1 31 1023 10 O 9.3
Oggi h: 14:20 sereno Sereno 18 0 29 1023 10 O/SO 11.1
Oggi h: 13:50 sereno Sereno 18 -1 27 1024 10 O/SO 9.3
Oggi h: 13:20 sereno Sereno 17 1 33 1024 10 O/SO 11.1
Oggi h: 12:50 sereno Sereno 16 -2 29 1025 10 O/SO 9.3
Oggi h: 12:20 poco_nuvoloso Poco Nuvoloso 17 -1 29 1025 10 O/SO 7.4
Oggi h: 11:50 sereno Sereno 16 -1 31 1026 10 N 5.5
Oggi h: 10:50 poco_nuvoloso Poco Nuvoloso 15 -1 33 1026 10 N 1.8
Oggi h: 10:20 sereno Sereno 14 -2 32 1027 10 N 1.8
Oggi h: 09:50 sereno Sereno 12 -1 40 1027 10 N 3.7
Oggi h: 09:20 sereno Sereno 11 -0 46 1027 10 N 1.8
Oggi h: 08:50 sereno Sereno 10 1 53 1027 10 N 0
Oggi h: 08:20 sereno Sereno 7 1 65 1027 10 N 0
Oggi h: 07:20 sereno Sereno 2 -1 80 1027 10 N 1.8
Oggi h: 06:50 sereno Sereno 2 -1 80 1027 10 N 0
Oggi h: 06:20 sereno Sereno 2 -0 86 1027 10 N 3.7
Oggi h: 05:50 sereno Sereno 1 -1 86 1027 10 N 3.7
Oggi h: 05:20 sereno Sereno 2 -1 80 1027 10 N 3.7
Oggi h: 04:50 sereno Sereno 2 -0 86 1027 10 N 0
Oggi h: 04:20 sereno Sereno 3 -0 80 1027 10 N 0
Oggi h: 03:50 sereno Sereno 2 -1 80 1027 10 N 0
Oggi h: 03:20 sereno Sereno 4 0 75 1027 10 N 0
Oggi h: 01:50 sereno Sereno 4 0 75 1028 10 N 0
Oggi h: 01:20 sereno Sereno 4 0 75 1028 10 N 0
Oggi h: 00:50 sereno Sereno 4 1 80 1028 10 N 3.7
Oggi h: 00:20 sereno Sereno 5 1 75 1028 10 N 1.8
Ieri h: 23:20 sereno Sereno 6 1 70 1028 10 N 0
Ieri h: 22:50 sereno Sereno 7 1 65 1028 10 N 1.8
Ieri h: 22:20 sereno Sereno 8 2 65 1028 10 N 0
Ieri h: 21:20 sereno Sereno 9 1 57 1027 10 N 0
Ieri h: 20:50 sereno Sereno 9 1 57 1027 10 N 0
Ieri h: 20:20 sereno Sereno 11 1 50 1027 10 N 3.7
Ieri h: 19:50 sereno Sereno 12 2 50 1027 10 N 1.8